This is the latest recevied weather packets stored in our database for station/object EA1IXY-2. If no packets are shown the sender has not sent any weather packets the latest 10 day(s).
| Time | Temp. | Humidity | Pressure | Rain* | Wind** | Luminosity | Snow |
|---|---|---|---|---|---|---|---|
| 1777494983 | 38.33° C | 18% | 924.6 hPa | - | - | - | - |
| 1777494082 | 38.89° C | 18% | 924.3 hPa | - | - | - | - |
| 1777493182 | 38.89° C | 17% | 924 hPa | - | - | - | - |
| 1777492282 | 38.89° C | 17% | 923.7 hPa | - | - | - | - |
| 1777490485 | 37.78° C | 18% | 922.2 hPa | - | - | - | - |
| 1777489571 | 38.89° C | 17% | 923.3 hPa | - | - | - | - |
| 1777486871 | 38.89° C | 17% | 922.8 hPa | - | - | - | - |
| 1777485971 | 38.89° C | 17% | 922.9 hPa | - | - | - | - |
| 1777482369 | 38.89° C | 17% | 922.4 hPa | - | - | - | - |
| 1777480570 | 39.44° C | 17% | 922.2 hPa | - | - | - | - |
| 1777478757 | 39.44° C | 17% | 922.3 hPa | - | - | - | - |
| 1777477857 | 38.89° C | 17% | 922.3 hPa | - | - | - | - |
| 1777476956 | 38.89° C | 17% | 922.3 hPa | - | - | - | - |
| 1777476056 | 38.89° C | 17% | 922.1 hPa | - | - | - | - |
| 1777475156 | 38.89° C | 17% | 922.1 hPa | - | - | - | - |
| 1777474256 | 38.89° C | 16% | 922.1 hPa | - | - | - | - |
| 1777473356 | 38.89° C | 17% | 922.1 hPa | - | - | - | - |
| 1777472456 | 38.89° C | 17% | 922.1 hPa | - | - | - | - |
| 1777471556 | 38.89° C | 16% | 921.8 hPa | - | - | - | - |
| 1777470656 | 38.89° C | 17% | 921.7 hPa | - | - | - | - |
| 1777469756 | 38.89° C | 16% | 921.9 hPa | - | - | - | - |
| 1777468856 | 37.78° C | 17% | 920.6 hPa | - | - | - | - |
| 1777467944 | 38.89° C | 17% | 922 hPa | - | - | - | - |
| 1777467044 | 38.89° C | 17% | 921.9 hPa | - | - | - | - |
| 1777466144 | 38.89° C | 17% | 921.7 hPa | - | - | - | - |
* Rain since midnight (hover to see other rain measurements)
** Current wind speed in m/s (hover to see current wind gust speed)